Flight Track Log - Related Links

Times and Time Zones

All times are in EDT time to prevent confusion due to time zone crossing. See the SWA1802 flight status page for this flight to view local times or setup timezone preferences in your user account.


Time Position Orientation Groundspeed Altitude Reporting Facility
EDT Latitude Longitude Course Direction KTS MPH feet Rate Location/Type
Fri 07:18:19 PM 41.7925 -87.8369 283° West 198 228 3,100  Level Chicago Center
Fri 07:19:21 PM 41.7736 -87.9186 253° West 224 258 4,100 2,177 Climbing Chicago Center
Fri 07:20:23 PM 41.8031 -88.0278 290° West 260 299 7,600 2,952 Climbing Chicago Center
Fri 07:21:25 PM 41.8172 -88.1194 282° West 263 303 10,200 2,032 Climbing Chicago Center
Fri 07:22:27 PM 41.8108 -88.2233 265° West 282 325 11,800 1,597 Climbing Chicago Center
Fri 07:23:00 PM 41.9281 -88.6350 283° West  Level FlightAware Approximate
Fri 07:23:29 PM 41.7867 -88.3472 255° West 345 397 13,500  Level Chicago Center
Fri 07:24:31 PM 41.7556 -88.5056 255° West 368 423 16,100 2,177 Climbing Chicago Center
Fri 07:25:33 PM 41.7281 -88.6458 255° West 386 444 18,000 1,887 Climbing Chicago Center
Fri 07:26:35 PM 41.6997 -88.7911 255° West 401 461 20,000 1,776 Climbing Chicago Center
Fri 07:27:38 PM 41.6706 -88.9411 255° West 419 482 21,700 2,112 Climbing Chicago Center
Fri 07:28:40 PM 41.6339 -89.1219 255° West 423 487 24,400 2,129 Climbing Chicago Center
Fri 07:29:42 PM 41.6050 -89.2731 256° West 423 487 26,100 1,403 Climbing Chicago Center
Fri 07:30:44 PM 41.5800 -89.4267 258° West 426 490 27,300 1,161 Climbing Chicago Center
Fri 07:31:46 PM 41.5531 -89.5925 258° West 437 503 28,500 1,258 Climbing Chicago Center
Fri 07:32:48 PM 41.5244 -89.7528 257° West 445 512 29,900 1,355 Climbing Chicago Center
Fri 07:33:50 PM 41.4964 -89.9128 257° West 445 512 31,300 1,452 Climbing Chicago Center
Fri 07:34:52 PM 41.4642 -90.1031 257° West 443 510 32,900 1,306 Climbing Chicago Center
Fri 07:35:54 PM 41.4364 -90.2597 257° West 439 505 34,000 960 Climbing Chicago Center
Fri 07:36:57 PM 41.4092 -90.4150 257° West 436 502 34,900 816 Climbing Chicago Center
Fri 07:37:59 PM 41.3814 -90.5714 257° West 436 502 35,700 532 Climbing Chicago Center
Fri 07:39:01 PM 41.3503 -90.7319 256° West 446 513 36,000 145 Climbing Chicago Center
Fri 07:40:03 PM 41.3225 -90.8903 257° West 445 512 36,000  Level Chicago Center
Fri 07:41:05 PM 41.2975 -91.0797 260° West 438 504 36,000  Level Chicago Center
Fri 07:42:07 PM 41.2747 -91.2353 259° West 432 497 36,000  Level Chicago Center
Fri 07:43:09 PM 41.2550 -91.3772 260° West 428 493 36,000  Level Chicago Center
Fri 07:44:11 PM 41.2317 -91.5425 259° West 423 487 36,000  Level Chicago Center
Fri 07:45:13 PM 41.2064 -91.7100 259° West 423 487 36,000  Level Chicago Center
Fri 07:46:15 PM 41.1844 -91.8589 259° West 418 481 36,000  Level Chicago Center
Fri 07:47:17 PM 41.1619 -92.0089 259° West 419 482 36,000  Level Chicago Center
Fri 07:48:19 PM 41.1403 -92.1572 259° West 416 479 36,000  Level Chicago Center
Fri 07:49:21 PM 41.1122 -92.3386 258° West 423 487 36,000 -435 Level Chicago Center
Fri 07:50:23 PM 41.0892 -92.4889 259° West 423 487 35,100 -968 Descending Chicago Center
Fri 07:51:25 PM 41.0661 -92.6425 259° West 429 494 34,000 -532 Descending Chicago Center
Fri 07:52:27 PM 41.0428 -92.7944 259° West 429 494 34,000  Level Chicago Center
Fri 07:53:29 PM 41.0136 -92.9758 258° West 428 493 34,000  Level Chicago Center
Fri 07:54:30 PM 40.9894 -93.1272 258° West 426 490 34,000  Level Chicago Center
Fri 07:55:32 PM 40.9661 -93.2767 258° West 422 486 34,000  Level Chicago Center
Fri 07:56:39 PM 40.9381 -93.4506 258° West 413 475 34,000  Level Minneapolis Center
Fri 07:57:41 PM 40.9136 -93.5981 258° West 414 476 34,000  Level Minneapolis Center
Fri 07:58:43 PM 40.8892 -93.7467 258° West 417 480 34,000  Level Minneapolis Center
Fri 07:59:45 PM 40.8644 -93.8961 258° West 419 482 34,000  Level Minneapolis Center
Fri 08:00:47 PM 40.8375 -94.0469 257° West 423 487 34,000  Level Minneapolis Center
Fri 08:01:48 PM 40.8061 -94.2244 257° West 421 484 34,000  Level Minneapolis Center
Fri 08:02:50 PM 40.7828 -94.3703 258° West 416 479 34,000  Level Minneapolis Center
Fri 08:03:52 PM 40.7625 -94.4892 257° West 418 481 34,000  Level Minneapolis Center
Fri 08:04:54 PM 40.7300 -94.6739 257° West 420 483 34,000  Level Minneapolis Center
Fri 08:05:56 PM 40.7019 -94.8256 256° West 423 487 34,000  Level Minneapolis Center
Fri 08:06:58 PM 40.6767 -94.9772 258° West 424 488 34,000  Level Minneapolis Center
Fri 08:07:59 PM 40.6486 -95.1311 257° West 428 493 34,000  Level Minneapolis Center
Fri 08:09:01 PM 40.6156 -95.3169 257° West 432 497 34,000  Level Minneapolis Center
Fri 08:10:03 PM 40.5878 -95.4725 257° West 434 499 34,000  Level Minneapolis Center
Fri 08:11:05 PM 40.5592 -95.6286 256° West 436 502 34,000  Level Minneapolis Center
Fri 08:12:19 PM 40.5314 -95.7831 257° West 434 499 34,000  Level Minneapolis Center
Fri 08:13:21 PM 40.4972 -95.9664 256° West 430 495 34,000  Level Minneapolis Center
Fri 08:14:23 PM 40.4686 -96.1192 256° West 428 493 34,000  Level Minneapolis Center
Fri 08:15:24 PM 40.4392 -96.2728 256° West 432 497 34,000  Level Minneapolis Center
Fri 08:16:26 PM 40.4100 -96.4250 256° West 430 495 34,000  Level Minneapolis Center
Fri 08:17:28 PM 40.3756 -96.6072 256° West 428 493 34,000  Level Minneapolis Center
Fri 08:18:30 PM 40.3461 -96.7561 255° West 423 487 34,000  Level Minneapolis Center
Fri 08:19:44 PM 40.3183 -96.9064 256° West 424 488 34,000  Level Minneapolis Center
Fri 08:20:46 PM 40.2825 -97.0839 255° West 421 484 34,000  Level Minneapolis Center
Fri 08:21:48 PM 40.2533 -97.2303 255° West 418 481 34,000  Level Minneapolis Center
Fri 08:22:50 PM 40.2244 -97.3756 255° West 420 483 34,000  Level Minneapolis Center
Fri 08:23:52 PM 40.1883 -97.5533 255° West 421 484 34,000  Level Minneapolis Center
Fri 08:24:53 PM 40.1583 -97.7019 255° West 422 486 34,000 341 Level Minneapolis Center
Fri 08:25:55 PM 40.1283 -97.8506 255° West 422 486 34,700 871 Climbing Minneapolis Center
Fri 08:26:57 PM 40.0969 -98.0000 255° West 424 488 35,800 629 Climbing Minneapolis Center
Fri 08:27:59 PM 40.0669 -98.1458 255° West 420 483 36,000 97 Climbing Minneapolis Center
Fri 08:29:01 PM 40.0367 -98.2925 255° West 418 481 36,000  Level Minneapolis Center
Fri 08:30:14 PM 40.0053 -98.4400 255° West 418 481 36,000  Level Minneapolis Center
Fri 08:31:17 PM 39.9683 -98.6164 255° West 419 482 36,000  Level Minneapolis Center
Fri 08:32:18 PM 39.9303 -98.7931 254° West 420 483 36,000  Level Minneapolis Center
Fri 08:32:59 PM 39.9117 -98.8814 255° West 422 486 36,000  Level Denver Center
Fri 08:34:00 PM 39.8864 -99.0003 255° West 425 489 36,000  Level Denver Center
Fri 08:35:03 PM 39.8481 -99.1792 254° West 426 490 36,000  Level Denver Center
Fri 08:36:05 PM 39.8147 -99.3272 254° West 426 490 36,000  Level Denver Center
Fri 08:37:06 PM 39.7811 -99.4756 254° West 425 489 36,000  Level Denver Center
Fri 08:38:08 PM 39.7425 -99.6542 254° West 430 495 36,000  Level Denver Center
Fri 08:39:10 PM 39.7092 -99.8028 254° West 428 493 36,000  Level Denver Center
Fri 08:40:12 PM 39.6728 -99.9606 253° West 430 495 36,000  Level Denver Center
Fri 08:41:14 PM 39.6411 -100.1022 254° West 429 494 36,000  Level Denver Center
Fri 08:42:16 PM 39.6078 -100.2450 253° West 429 494 36,000  Level Denver Center
Fri 08:43:18 PM 39.5703 -100.4128 254° West 434 499 36,000  Level Denver Center
Fri 08:44:20 PM 39.5361 -100.5567 253° West 435 501 36,000  Level Denver Center
Fri 08:45:22 PM 39.4969 -100.7253 253° West 439 505 36,000  Level Denver Center
Fri 08:46:24 PM 39.4625 -100.8728 253° West 443 510 36,000  Level Denver Center
Fri 08:47:26 PM 39.4225 -101.0461 253° West 449 517 36,000  Level Denver Center
Fri 08:48:28 PM 39.3861 -101.1933 252° West 448 516 36,000  Level Denver Center
Fri 08:49:30 PM 39.3456 -101.3675 253° West 451 519 36,000  Level Denver Center
Fri 08:50:31 PM 39.3092 -101.5125 252° West 445 512 36,000  Level Denver Center
Fri 08:51:33 PM 39.2750 -101.6614 254° West 450 518 36,000  Level Denver Center
Fri 08:52:35 PM 39.2325 -101.8300 252° West 441 507 36,000  Level Denver Center
Fri 08:53:37 PM 39.1967 -101.9736 252° West 440 506 36,000  Level Denver Center
Fri 08:54:39 PM 39.1558 -102.1419 253° West 441 507 36,000  Level Denver Center
Fri 08:55:41 PM 39.1206 -102.2833 252° West 438 504 36,000  Level Denver Center
Fri 08:56:42 PM 39.0906 -102.4014 252° West 437 503 36,000  Level Denver Center
Fri 08:57:44 PM 39.0428 -102.5900 252° West 436 502 36,000  Level Denver Center
Fri 08:58:46 PM 39.0019 -102.7542 252° West 435 501 36,000  Level Denver Center
Fri 08:59:48 PM 38.9675 -102.8894 252° West 435 501 36,000  Level Denver Center
Fri 09:00:50 PM 38.9303 -103.0356 252° West 433 498 36,000  Level Denver Center
Fri 09:01:52 PM 38.8919 -103.1800 251° West 429 494 36,000  Level Denver Center
Fri 09:02:54 PM 38.8492 -103.3497 252° West 420 483 36,000  Level Denver Center
Fri 09:03:55 PM 38.8108 -103.4925 251° West 426 490 36,000  Level Denver Center
Fri 09:04:57 PM 38.7750 -103.6294 251° West 425 489 36,000  Level Denver Center
Fri 09:05:59 PM 38.7333 -103.7869 251° West 421 484 36,000  Level Denver Center
Fri 09:07:01 PM 38.6983 -103.9225 252° West 419 482 36,000  Level Denver Center
Fri 09:08:02 PM 38.6561 -104.0761 251° West 415 478 36,000  Level Denver Center
Fri 09:09:04 PM 38.6156 -104.1867 245° Southwest 398 458 36,000  Level Denver Center
Fri 09:10:06 PM 38.5150 -104.3064 223° Southwest 409 471 36,000  Level Denver Center
Fri 09:11:08 PM 38.4328 -104.4033 223° Southwest 404 465 36,000  Level Denver Center
Fri 09:12:09 PM 38.3497 -104.5008 223° Southwest 404 465 36,000  Level Denver Center
Fri 09:13:11 PM 38.2742 -104.6042 227° Southwest 400 460 36,000  Level Denver Center
Fri 09:14:13 PM 38.2408 -104.7272 251° West 385 443 36,000  Level Denver Center
Fri 09:15:15 PM 38.2042 -104.8717 252° West 385 443 36,000  Level Denver Center
Fri 09:16:16 PM 38.1783 -104.9758 253° West 388 447 36,000  Level Denver Center
Fri 09:17:18 PM 38.1356 -105.1422 252° West 388 447 36,000  Level Denver Center
Fri 09:18:20 PM 38.1042 -105.2675 252° West 389 448 36,000  Level Denver Center
Fri 09:19:22 PM 38.0664 -105.4122 252° West 387 445 36,000  Level Denver Center
Fri 09:20:23 PM 38.0342 -105.5367 252° West 389 448 36,000  Level Denver Center
Fri 09:21:25 PM 37.9964 -105.6847 252° West 395 455 36,000  Level Denver Center
Fri 09:22:27 PM 37.9633 -105.8108 252° West 395 455 36,000  Level Denver Center
Fri 09:23:29 PM 37.9300 -105.9364 251° West 394 453 36,000  Level Denver Center
Fri 09:24:31 PM 37.8922 -106.0814 252° West 390 449 36,000  Level Denver Center
Fri 09:25:33 PM 37.8600 -106.2053 252° West 390 449 36,000  Level Denver Center
Fri 09:26:34 PM 37.8208 -106.3494 251° West 389 448 36,000  Level Denver Center
Fri 09:27:36 PM 37.7833 -106.4856 251° West 387 445 36,000  Level Denver Center
Fri 09:28:38 PM 37.7508 -106.6111 252° West 393 452 36,000  Level Denver Center
Fri 09:29:40 PM 37.7114 -106.7561 251° West 392 451 36,000  Level Denver Center
Fri 09:30:42 PM 37.6781 -106.8775 251° West 384 442 36,000  Level Denver Center
Fri 09:31:43 PM 37.6444 -107.0006 251° West 388 447 36,000  Level Denver Center
Fri 09:32:45 PM 37.6064 -107.1453 252° West 390 449 36,000  Level Denver Center
Fri 09:33:47 PM 37.5717 -107.2694 251° West 393 452 36,000  Level Denver Center
Fri 09:34:49 PM 37.5306 -107.4150 250° West 395 455 36,000  Level Denver Center
Fri 09:35:51 PM 37.4953 -107.5408 251° West 398 458 36,000  Level Denver Center
Fri 09:36:52 PM 37.4664 -107.6461 251° West 399 459 36,000  Level Denver Center
Fri 09:37:54 PM 37.4250 -107.7936 251° West 399 459 36,000  Level Denver Center
Fri 09:39:08 PM 37.3778 -107.9572 250° West 392 451 36,000  Level Denver Center
Fri 09:40:10 PM 37.3375 -108.1042 251° West 397 457 36,000  Level Denver Center
Fri 09:41:12 PM 37.2961 -108.2456 250° West 390 449 36,000  Level Denver Center
Fri 09:42:15 PM 37.2617 -108.3681 251° West 389 448 36,000  Level Denver Center
Fri 09:43:16 PM 37.2317 -108.4675 249° West 384 442 36,000  Level Denver Center
Fri 09:44:18 PM 37.1842 -108.6317 250° West 391 450 36,000  Level Denver Center
Fri 09:45:32 PM 37.1433 -108.7742 250° West 390 449 36,000  Level Denver Center
Fri 09:46:34 PM 37.1014 -108.9169 250° West 393 452 36,000  Level Denver Center
Fri 09:47:36 PM 37.0594 -109.0594 250° West 391 450 36,000  Level Denver Center
Fri 09:48:38 PM 37.0225 -109.1806 249° West 390 449 36,000  Level Denver Center
Fri 09:49:40 PM 36.9814 -109.3233 250° West 392 451 36,000  Level Denver Center
Fri 09:50:42 PM 36.9433 -109.4461 249° West 395 455 36,000  Level Denver Center
Fri 09:51:44 PM 36.9014 -109.5872 250° West 390 449 36,000  Level Denver Center
Fri 09:52:46 PM 36.8656 -109.7061 249° West 385 443 36,000  Level Denver Center
Fri 09:53:48 PM 36.8233 -109.8464 249° West 385 443 36,000  Level Denver Center
Fri 09:54:50 PM 36.7872 -109.9636 249° West 380 437 36,000  Level Denver Center
Fri 09:55:52 PM 36.7458 -110.1022 250° West 381 438 36,000  Level Denver Center
Fri 09:56:54 PM 36.7092 -110.2153 248° West 380 437 36,000  Level Denver Center
Fri 09:57:56 PM 36.6717 -110.3392 249° West 382 440 36,000  Level Denver Center
Fri 09:58:58 PM 36.6333 -110.4636 249° West 386 444 36,000  Level Denver Center
Fri 10:00:00 PM 36.5872 -110.6128 249° West 385 443 36,000  Level Denver Center
Fri 10:01:01 PM 36.5553 -110.7133 248° West 388 447 36,000  Level Denver Center
Fri 10:02:04 PM 36.5075 -110.8631 248° West 388 447 36,000  Level Denver Center
Fri 10:03:06 PM 36.4700 -110.9858 249° West 384 442 36,000  Level Denver Center
Fri 10:04:08 PM 36.4322 -111.1089 249° West 381 438 36,000  Level Denver Center
Fri 10:05:10 PM 36.3911 -111.2325 248° West 385 443 36,000  Level Denver Center
Fri 10:06:12 PM 36.3453 -111.3808 249° West 384 442 36,000  Level Denver Center
Fri 10:07:26 PM 36.3039 -111.5047 248° West 386 444 36,000  Level Denver Center
Fri 10:08:28 PM 36.2567 -111.6508 248° West 383 441 36,000  Level Denver Center
Fri 10:09:08 PM 36.2319 -111.7261 248° West 383 441 36,000  Level Los Angeles Center
Fri 10:10:10 PM 36.1864 -111.8469 245° Southwest 387 445 36,000  Level Los Angeles Center
Fri 10:11:11 PM 36.1386 -111.9772 246° West 390 449 36,000  Level Los Angeles Center
Fri 10:12:13 PM 36.0950 -112.1000 246° West 393 452 36,000  Level Los Angeles Center
Fri 10:13:15 PM 36.0503 -112.2197 245° Southwest 389 448 36,000  Level Los Angeles Center
Fri 10:14:17 PM 35.9997 -112.3569 246° West 382 440 36,000  Level Los Angeles Center
Fri 10:15:19 PM 35.9564 -112.4761 246° West 382 440 36,000  Level Los Angeles Center
Fri 10:16:21 PM 35.9097 -112.6008 245° Southwest 387 445 36,000  Level Los Angeles Center
Fri 10:17:23 PM 35.8658 -112.7186 245° Southwest 383 441 36,000  Level Los Angeles Center
Fri 10:18:24 PM 35.8311 -112.8103 245° Southwest 378 435 36,000  Level Los Angeles Center
Fri 10:19:26 PM 35.7694 -112.9753 245° Southwest 382 440 36,000  Level Los Angeles Center
Fri 10:20:28 PM 35.7258 -113.0933 246° West 384 442 36,000  Level Los Angeles Center
Fri 10:21:30 PM 35.6758 -113.2228 245° Southwest 387 445 36,000  Level Los Angeles Center
Fri 10:22:32 PM 35.6350 -113.3314 245° Southwest 392 451 36,000  Level Los Angeles Center
Fri 10:23:34 PM 35.5889 -113.4497 244° Southwest 390 449 36,000  Level Los Angeles Center
Fri 10:24:36 PM 35.5350 -113.5919 245° Southwest 388 447 36,000  Level Los Angeles Center
Fri 10:25:38 PM 35.4892 -113.7117 245° Southwest 391 450 36,000  Level Los Angeles Center
Fri 10:26:40 PM 35.4431 -113.8297 244° Southwest 388 447 36,000  Level Los Angeles Center
Fri 10:27:42 PM 35.3975 -113.9469 245° Southwest 393 452 36,000  Level Los Angeles Center
Fri 10:28:43 PM 35.3419 -114.0889 244° Southwest 384 442 36,000  Level Los Angeles Center
Fri 10:29:45 PM 35.2944 -114.2069 244° Southwest 383 441 36,000  Level Los Angeles Center
Fri 10:30:47 PM 35.2492 -114.3258 245° Southwest 385 443 36,000  Level Los Angeles Center
Fri 10:31:49 PM 35.2028 -114.4444 244° Southwest 386 444 36,000  Level Los Angeles Center
Fri 10:32:51 PM 35.1550 -114.5639 244° Southwest 389 448 36,000  Level Los Angeles Center
Fri 10:33:52 PM 35.1067 -114.6839 244° Southwest 394 453 36,000  Level Los Angeles Center
Fri 10:34:54 PM 35.0608 -114.8028 245° Southwest 387 445 36,000  Level Los Angeles Center
Fri 10:35:56 PM 35.0125 -114.9206 243° Southwest 388 447 36,000 -194 Level Los Angeles Center
Fri 10:36:58 PM 34.9556 -115.0622 244° Southwest 388 447 35,600 -629 Descending Los Angeles Center
Fri 10:38:00 PM 34.9086 -115.1822 245° Southwest 392 451 34,700 -927 Descending Los Angeles Center
Fri 10:39:01 PM 34.8597 -115.3042 244° Southwest 398 458 33,700 -976 Descending Los Angeles Center
Fri 10:40:03 PM 34.8103 -115.4233 243° Southwest 396 456 32,700 -919 Descending Los Angeles Center
Fri 10:41:05 PM 34.7725 -115.5181 244° Southwest 391 450 31,800 -1,065 Descending Los Angeles Center
Fri 10:42:07 PM 34.7128 -115.6642 244° Southwest 382 440 30,500 -1,113 Descending Los Angeles Center
Fri 10:43:09 PM 34.6656 -115.7794 244° Southwest 381 438 29,500 -976 Descending Los Angeles Center
Fri 10:44:10 PM 34.6192 -115.8919 243° Southwest 376 433 28,500 -878 Descending Los Angeles Center
Fri 10:45:12 PM 34.5825 -115.9803 243° Southwest 371 427 27,700 -726 Descending Los Angeles Center
Fri 10:46:14 PM 34.5267 -116.1136 243° Southwest 370 426 27,000 -339 Descending Los Angeles Center
Fri 10:47:16 PM 34.4806 -116.2236 243° Southwest 366 421 27,000  Level Los Angeles Center
Fri 10:48:18 PM 34.4267 -116.3558 244° Southwest 366 421 27,000 -244 Level Los Angeles Center
Fri 10:49:19 PM 34.3789 -116.4656 242° Southwest 367 422 26,500 -829 Descending Los Angeles Center
Fri 10:50:21 PM 34.3422 -116.5547 244° Southwest 369 425 25,300 -1,210 Descending Los Angeles Center
Fri 10:51:23 PM 34.2875 -116.6847 243° Southwest 362 417 24,000 -1,113 Descending Los Angeles Center
Fri 10:52:25 PM 34.2419 -116.7917 243° Southwest 359 413 23,000 -882 Descending Los Angeles Center
Fri 10:53:39 PM 34.1969 -116.8983 243° Southwest 356 410 22,000 -971 Descending Los Angeles Center
Fri 10:54:41 PM 34.1444 -117.0219 243° Southwest 346 398 20,800 -1,790 Descending Los Angeles Center
Fri 10:55:43 PM 34.0933 -117.1433 243° Southwest 339 390 18,300 -2,274 Descending Los Angeles Center
Fri 10:56:16 PM 34.0667 -117.2000 240° Southwest 345 397 17,200 -1,871 Descending Southern California TRACON
Fri 10:57:16 PM 34.0500 -117.3167 260° West 331 381 15,400 -1,200 Descending Southern California TRACON
Fri 10:58:16 PM 34.0333 -117.4167 259° West 309 356 14,800 -1,550 Descending Southern California TRACON
Fri 10:59:16 PM 34.0333 -117.5167 270° West 316 364 12,300 -2,368 Descending Southern California TRACON
Fri 11:00:10 PM 34.0333 -117.6167 270° West 337 388 10,300 -1,368 Descending Southern California TRACON
Fri 11:01:10 PM 34.0167 -117.7167 259° West 285 328 9,700 -1,000 Descending Southern California TRACON
Fri 11:02:10 PM 34.0167 -117.8167 270° West 275 316 8,300 -1,333 Descending Southern California TRACON
Fri 11:03:16 PM 34.0000 -117.9167 259° West 271 312 6,900 -994 Descending Southern California TRACON
Fri 11:05:11 PM 33.9872 -118.0636 264° West 245 282 5,300 -915 Descending Los Angeles Center
Fri 11:06:13 PM 33.9794 -118.1403 263° West 236 272 4,200 -1,171 Descending Los Angeles Center
Fri 11:07:14 PM 33.9703 -118.2256 263° West 221 254 2,900 -1,122 Descending Los Angeles Center
Fri 11:08:16 PM 33.9639 -118.2892 263° West 206 237 1,900 -919 Descending Los Angeles Center
Fri 11:09:18 PM 33.9583 -118.3439 263° West 182 209 1,000 -774 Descending Los Angeles Center
Fri 11:10:20 PM 33.9539 -118.3911 264° West 156 180 300 -435 Descending Los Angeles Center
Fri 11:11:22 PM 33.9481 -118.4381 261° West 154 177 100 -194 Descending Los Angeles Center

Login

Don't have an account? Register now (free) for customized features, flight alerts, and more!